createdAt,value
2023-02-03T00:02:00.328Z,4.30
2023-02-03T00:06:04.103Z,4.28
2023-02-03T00:10:08.822Z,4.25
2023-02-03T00:14:13.561Z,4.55
2023-02-03T00:18:17.096Z,4.35
2023-02-03T00:22:21.896Z,3.63
2023-02-03T00:26:26.240Z,4.22
2023-02-03T00:30:31.654Z,4.90
2023-02-03T00:34:34.986Z,5.53
2023-02-03T00:38:38.674Z,4.78
2023-02-03T00:42:42.108Z,5.15
2023-02-03T00:46:47.036Z,4.82
2023-02-03T00:50:50.757Z,5.32
2023-02-03T00:54:54.391Z,5.30
2023-02-03T00:58:58.059Z,5.18
2023-02-03T01:03:03.976Z,5.15
2023-02-03T01:07:07.562Z,6.70
2023-02-03T01:11:12.980Z,6.40
2023-02-03T01:15:16.639Z,5.53
2023-02-03T01:19:21.896Z,6.15
2023-02-03T01:23:25.350Z,5.65
2023-02-03T01:27:28.873Z,5.28
2023-02-03T01:31:35.544Z,6.32
2023-02-03T01:35:41.929Z,5.97
2023-02-03T01:39:45.409Z,5.28
2023-02-03T01:43:50.525Z,6.82
2023-02-03T01:47:57.531Z,6.70
2023-02-03T01:52:03.375Z,10.05
2023-02-03T01:56:08.318Z,6.72
2023-02-03T02:00:13.365Z,5.93
2023-02-03T02:04:18.046Z,6.35
2023-02-03T02:08:24.163Z,6.78
2023-02-03T02:12:27.727Z,7.70
2023-02-03T02:16:40.419Z,8.98
2023-02-03T02:21:28.629Z,7.72
2023-02-03T02:25:55.592Z,8.02
2023-02-03T02:30:42.196Z,7.43
2023-02-03T02:34:54.405Z,6.93
2023-02-03T02:39:01.213Z,6.68
2023-02-03T02:43:10.271Z,7.22
2023-02-03T02:47:19.412Z,7.20
2023-02-03T02:51:25.246Z,7.55
2023-02-03T02:55:32.345Z,7.05
2023-02-03T02:59:36.116Z,6.65
2023-02-03T03:03:43.206Z,7.75
2023-02-03T03:07:51.198Z,7.25
2023-02-03T03:11:59.701Z,7.20
2023-02-03T03:16:04.284Z,7.90
2023-02-03T03:20:11.956Z,7.13
2023-02-03T03:24:20.796Z,8.32
2023-02-03T03:28:30.376Z,8.50
2023-02-03T03:32:34.253Z,7.85
2023-02-03T03:36:46.131Z,8.52
2023-02-03T03:40:54.836Z,8.55
2023-02-03T03:45:00.871Z,7.13
2023-02-03T03:49:05.696Z,6.97
2023-02-03T03:53:11.695Z,7.47
2023-02-03T03:57:20.407Z,8.27
2023-02-03T04:01:25.061Z,9.00
2023-02-03T04:05:29.269Z,8.88
2023-02-03T04:09:36.787Z,8.57
2023-02-03T04:13:41.651Z,8.02
2023-02-03T04:17:45.145Z,8.20
2023-02-03T04:21:48.795Z,6.57
2023-02-03T04:25:52.683Z,9.48
2023-02-03T04:29:57.522Z,8.18
2023-02-03T04:34:01.475Z,8.95
2023-02-03T04:38:04.792Z,7.47
2023-02-03T04:42:08.531Z,8.38
2023-02-03T04:46:13.527Z,7.63
2023-02-03T04:50:18.214Z,8.38
2023-02-03T04:54:21.610Z,8.70
2023-02-03T04:58:26.667Z,7.80
2023-02-03T05:02:31.628Z,8.35
2023-02-03T05:06:35.445Z,7.22
2023-02-03T05:10:39.134Z,7.07
2023-02-03T05:14:42.803Z,6.60
2023-02-03T05:18:47.780Z,6.30
2023-02-03T05:22:51.192Z,5.88
2023-02-03T05:26:54.630Z,6.13
2023-02-03T05:31:00.308Z,8.10
2023-02-03T05:35:05.297Z,6.80
2023-02-03T05:39:08.870Z,6.82
2023-02-03T05:43:12.171Z,5.72
2023-02-03T05:47:16.497Z,6.45
2023-02-03T05:51:21.314Z,6.70
2023-02-03T05:55:24.980Z,8.68
2023-02-03T05:59:28.257Z,8.35
2023-02-03T06:03:31.835Z,6.72
2023-02-03T06:07:37.061Z,7.10
2023-02-03T06:11:41.717Z,6.18
2023-02-03T06:15:45.434Z,11.88
2023-02-03T06:19:49.297Z,6.70
2023-02-03T06:23:54.811Z,4.93
2023-02-03T06:27:58.138Z,5.95
2023-02-03T06:32:01.538Z,7.05
2023-02-03T06:36:05.172Z,7.40
2023-02-03T06:40:12.347Z,6.90
2023-02-03T06:44:15.308Z,7.63
2023-02-03T06:48:18.328Z,6.50
2023-02-03T06:52:21.561Z,7.50
2023-02-03T06:56:26.903Z,7.25
2023-02-03T07:00:29.985Z,7.97
2023-02-03T07:04:33.100Z,8.10
2023-02-03T07:08:36.887Z,8.05
2023-02-03T07:12:41.060Z,7.55
2023-02-03T07:20:47.272Z,5.78
2023-02-03T07:24:49.995Z,8.07
2023-02-03T07:28:54.612Z,6.28
2023-02-03T07:32:57.469Z,6.20
2023-02-03T07:37:00.437Z,5.88
2023-02-03T07:41:03.239Z,6.38
2023-02-03T07:45:11.308Z,6.03
2023-02-03T07:49:14.923Z,6.05
2023-02-03T07:53:17.935Z,6.40
2023-02-03T07:57:20.835Z,5.28
2023-02-03T08:01:27.256Z,5.18
2023-02-03T08:05:30.585Z,5.97
2023-02-03T08:09:33.363Z,5.80
2023-02-03T08:13:36.221Z,5.40
2023-02-03T08:17:42.088Z,6.25
2023-02-03T08:21:44.909Z,6.18
2023-02-03T08:25:52.159Z,5.65
2023-02-03T08:29:55.108Z,7.65
2023-02-03T08:33:59.772Z,7.72
2023-02-03T08:38:02.532Z,5.78
2023-02-03T08:42:08.711Z,6.20
2023-02-03T08:46:14.132Z,3.83
2023-02-03T08:50:19.809Z,4.13
2023-02-03T08:54:25.498Z,4.32
2023-02-03T08:58:28.385Z,3.25
2023-02-03T09:02:31.240Z,4.15
2023-02-03T09:06:36.197Z,2.95
2023-02-03T09:10:39.298Z,3.15
2023-02-03T09:14:42.381Z,3.13
2023-02-03T09:18:45.870Z,3.05
2023-02-03T09:22:50.736Z,3.00
2023-02-03T09:26:55.272Z,2.85
2023-02-03T09:31:02.043Z,3.10
2023-02-03T09:35:05.012Z,3.08
2023-02-03T09:39:09.398Z,2.15
2023-02-03T09:43:23.911Z,2.90
2023-02-03T09:47:29.650Z,3.22
2023-02-03T09:51:37.060Z,5.18
2023-02-03T09:55:43.699Z,3.22
2023-02-03T09:59:46.769Z,3.45
2023-02-03T10:03:53.244Z,3.00
2023-02-03T10:08:04.259Z,4.30
2023-02-03T10:12:34.579Z,2.40
2023-02-03T10:16:45.738Z,2.80
2023-02-03T10:20:50.369Z,2.33
2023-02-03T10:24:56.786Z,2.30
2023-02-03T10:29:07.957Z,2.10
2023-02-03T10:33:13.230Z,1.80
2023-02-03T10:37:23.628Z,2.38
2023-02-03T10:41:26.934Z,2.33
2023-02-03T10:45:33.297Z,2.03
2023-02-03T10:49:36.095Z,2.00
2023-02-03T10:53:39.434Z,1.95
2023-02-03T10:57:42.332Z,2.20
2023-02-03T11:01:49.326Z,2.17
2023-02-03T11:06:06.141Z,2.17
2023-02-03T11:10:31.129Z,1.52
2023-02-03T11:14:38.178Z,1.70
2023-02-03T11:18:49.965Z,1.60
2023-02-03T11:22:53.260Z,1.63
2023-02-03T11:26:58.101Z,1.45
2023-02-03T11:31:01.543Z,1.75
2023-02-03T11:35:16.046Z,1.70
2023-02-03T11:39:28.368Z,1.60
2023-02-03T11:43:33.211Z,1.85
2023-02-03T11:47:36.459Z,1.80
2023-02-03T11:51:46.290Z,2.50
2023-02-03T11:55:58.247Z,1.40
2023-02-03T12:00:13.448Z,0.93
2023-02-03T12:04:44.396Z,2.25
2023-02-03T12:09:03.439Z,1.80
2023-02-03T12:13:18.285Z,1.50
2023-02-03T12:17:40.274Z,1.50
2023-02-03T12:21:45.974Z,1.50
2023-02-03T12:25:59.583Z,1.00
2023-02-03T12:30:05.795Z,1.23
2023-02-03T12:34:18.768Z,1.23
2023-02-03T12:38:28.657Z,1.90
2023-02-03T12:42:37.243Z,1.20
2023-02-03T12:46:44.949Z,1.70
2023-02-03T12:50:52.119Z,1.40
2023-02-03T12:55:02.605Z,1.13
2023-02-03T12:59:14.170Z,1.30
2023-02-03T13:03:24.751Z,6.50
2023-02-03T13:07:33.644Z,3.30
2023-02-03T13:11:39.887Z,1.50
2023-02-03T13:15:48.649Z,1.80
2023-02-03T13:19:55.083Z,1.60
2023-02-03T13:23:58.701Z,1.80
2023-02-03T13:28:12.464Z,1.60
2023-02-03T13:32:37.397Z,1.65
2023-02-03T13:36:59.249Z,1.42
2023-02-03T13:41:07.561Z,2.42
2023-02-03T13:45:18.769Z,1.60
2023-02-03T13:49:26.250Z,1.45
2023-02-03T13:53:29.771Z,1.88
2023-02-03T13:57:38.298Z,2.00
2023-02-03T14:01:42.153Z,1.88
2023-02-03T14:05:51.006Z,2.35
2023-02-03T14:10:23.466Z,4.03
2023-02-03T14:14:46.819Z,1.55
2023-02-03T14:18:50.101Z,2.03
2023-02-03T14:22:56.511Z,1.83
2023-02-03T14:27:01.044Z,1.90
2023-02-03T14:31:06.276Z,1.48
2023-02-03T14:35:16.980Z,1.42
2023-02-03T14:39:45.602Z,1.40
2023-02-03T14:43:52.253Z,2.10
2023-02-03T14:48:03.610Z,1.60
2023-02-03T14:52:17.309Z,1.60
2023-02-03T14:56:52.085Z,2.33
2023-02-03T15:00:55.847Z,1.88
2023-02-03T15:05:32.136Z,1.33
2023-02-03T15:09:39.736Z,1.45
2023-02-03T15:13:45.992Z,1.60
2023-02-03T15:17:49.905Z,1.73
2023-02-03T15:21:54.915Z,1.98
2023-02-03T15:26:00.146Z,1.90
2023-02-03T15:30:18.699Z,1.90
2023-02-03T15:34:25.095Z,1.83
2023-02-03T15:38:30.962Z,2.05
2023-02-03T15:42:40.790Z,2.20
2023-02-03T15:46:48.357Z,2.25
2023-02-03T15:50:53.383Z,1.70
2023-02-03T15:55:05.652Z,1.80
2023-02-03T15:59:20.858Z,2.00
2023-02-03T16:03:28.774Z,2.10
2023-02-03T16:07:32.187Z,2.83
2023-02-03T16:11:38.114Z,1.48
2023-02-03T16:15:41.222Z,2.30
2023-02-03T16:19:48.792Z,1.65
2023-02-03T16:23:52.664Z,2.13
2023-02-03T16:28:15.765Z,2.72
2023-02-03T16:32:38.032Z,5.70
2023-02-03T16:37:01.959Z,6.65
2023-02-03T16:41:23.607Z,2.00
2023-02-03T16:45:44.456Z,3.42
2023-02-03T16:50:05.718Z,3.47
2023-02-03T16:54:13.223Z,2.45
2023-02-03T16:58:16.911Z,6.80
2023-02-03T17:02:20.033Z,7.30
2023-02-03T17:06:24.597Z,3.08
2023-02-03T17:10:33.245Z,3.13
2023-02-03T17:14:38.147Z,2.80
2023-02-03T17:18:48.637Z,2.75
2023-02-03T17:22:54.708Z,2.90
2023-02-03T17:26:59.476Z,2.72
2023-02-03T17:31:05.913Z,3.15
2023-02-03T17:35:10.544Z,2.97
2023-02-03T17:56:48.215Z,3.78
2023-02-03T18:00:52.865Z,3.35
2023-02-03T18:04:57.523Z,3.47
2023-02-03T18:09:02.674Z,3.40
2023-02-03T18:13:06.763Z,3.75
2023-02-03T18:17:12.503Z,3.65
2023-02-03T18:21:18.179Z,4.72
2023-02-03T18:25:22.314Z,5.53
2023-02-03T18:29:26.282Z,5.10
2023-02-03T18:33:34.680Z,4.45
2023-02-03T18:37:39.144Z,5.10
2023-02-03T18:41:42.436Z,3.35
2023-02-03T18:45:46.478Z,5.82
2023-02-03T18:49:50.865Z,4.10
2023-02-03T18:53:58.382Z,3.95
2023-02-03T18:58:02.281Z,3.70
2023-02-03T19:02:06.184Z,3.28
2023-02-03T19:06:14.735Z,3.75
2023-02-03T19:10:18.553Z,3.53
2023-02-03T19:14:30.102Z,4.35
2023-02-03T19:18:33.202Z,3.47
2023-02-03T19:22:38.460Z,4.28
2023-02-03T19:26:41.927Z,4.38
2023-02-03T19:30:46.015Z,4.18
2023-02-03T19:34:57.740Z,5.00
2023-02-03T19:39:02.740Z,4.10
2023-02-03T19:43:06.304Z,4.63
2023-02-03T19:47:11.169Z,4.28
2023-02-03T19:51:14.642Z,4.25
2023-02-03T19:55:18.951Z,5.40
2023-02-03T19:59:23.097Z,5.80
2023-02-03T20:03:26.548Z,5.65
2023-02-03T20:07:33.750Z,5.85
2023-02-03T20:11:39.258Z,5.40
2023-02-03T20:15:42.205Z,5.85
2023-02-03T20:19:45.167Z,6.15
2023-02-03T20:23:48.561Z,6.55
2023-02-03T20:27:57.155Z,5.82
2023-02-03T20:32:00.841Z,6.38
2023-02-03T20:36:12.780Z,6.20
2023-02-03T20:40:18.249Z,5.25
2023-02-03T20:44:23.356Z,5.40
2023-02-03T20:48:27.177Z,5.28
2023-02-03T20:52:29.950Z,5.93
2023-02-03T20:56:36.219Z,6.07
2023-02-03T21:00:40.853Z,6.47
2023-02-03T21:04:59.011Z,6.22
2023-02-03T21:09:10.156Z,5.50
2023-02-03T21:13:20.674Z,6.30
2023-02-03T21:17:27.675Z,5.97
2023-02-03T21:21:35.617Z,6.40
2023-02-03T21:25:38.794Z,6.45
2023-02-03T21:29:42.933Z,6.35
2023-02-03T21:33:48.008Z,7.07
2023-02-03T21:37:53.112Z,7.78
2023-02-03T21:41:57.481Z,8.52
2023-02-03T21:46:01.778Z,4.88
2023-02-03T21:50:33.336Z,7.53
2023-02-03T21:54:41.950Z,7.68
2023-02-03T21:58:47.509Z,8.23
2023-02-03T22:02:57.635Z,7.95
2023-02-03T22:07:02.454Z,8.77
2023-02-03T22:11:05.715Z,8.50
2023-02-03T22:15:10.298Z,9.00
2023-02-03T22:19:13.109Z,8.70
2023-02-03T22:23:17.699Z,8.15
2023-02-03T22:27:21.053Z,6.90
2023-02-03T22:31:24.146Z,8.07
2023-02-03T22:35:27.541Z,7.63
2023-02-03T22:39:32.270Z,7.70
2023-02-03T22:43:35.360Z,7.50
2023-02-03T22:47:38.635Z,7.72
2023-02-03T22:51:42.004Z,8.85
2023-02-03T22:55:46.712Z,7.95
2023-02-03T22:59:52.478Z,8.30
2023-02-03T23:03:55.957Z,7.50
2023-02-03T23:07:58.796Z,7.53
2023-02-03T23:12:03.841Z,8.10
2023-02-03T23:16:06.980Z,8.10
2023-02-03T23:20:12.315Z,7.93
2023-02-03T23:24:15.812Z,7.72
2023-02-03T23:28:20.618Z,7.85
2023-02-03T23:32:30.909Z,7.82
2023-02-03T23:36:34.487Z,7.75
2023-02-03T23:40:37.568Z,8.43
2023-02-03T23:44:42.600Z,8.00
2023-02-03T23:48:45.516Z,8.32
2023-02-03T23:52:49.008Z,8.50
2023-02-03T23:56:52.832Z,8.38
